Time;durP1;ratioP1;P1;durP2;ratioP2;P2;SDS_P1;SDS_P2;PMS_P1;PMS_P2;Temp;Humidity;BMP_temperature;BMP_pressure;BME280_temperature;BME280_humidity;BME280_pressure;Samples;Min_cycle;Max_cycle;Signal;HPM_P1;HPM_P2
2021/11/12 00:13:20;;;;;;;2.40;2.20;;;22.50;40.60;;;;;;5064687;28;20430;-71
2021/11/12 00:15:50;;;;;;;2.50;2.10;;;22.50;40.60;;;;;;5064431;28;20445;-71
2021/11/12 00:18:17;;;;;;;2.58;2.10;;;22.50;40.60;;;;;;5064449;28;20792;-74
2021/11/12 00:20:44;;;;;;;2.40;2.20;;;22.50;40.60;;;;;;5064653;28;20388;-74
2021/11/12 00:23:10;;;;;;;2.22;2.03;;;22.50;40.60;;;;;;5063530;28;20418;-74
2021/11/12 00:25:36;;;;;;;2.40;2.20;;;22.50;40.60;;;;;;5064087;28;20398;-68
2021/11/12 00:28:01;;;;;;;2.33;2.13;;;22.40;40.60;;;;;;5064232;28;20384;-75
2021/11/12 00:33:26;;;;;;;2.65;2.40;;;22.50;40.60;;;;;;5064598;28;20896;-75
2021/11/12 00:35:55;;;;;;;2.67;2.15;;;22.50;40.60;;;;;;5063862;28;20462;-74
2021/11/12 00:38:25;;;;;;;2.70;2.13;;;22.40;40.50;;;;;;5062708;28;20443;-75
2021/11/12 00:43:39;;;;;;;2.20;1.90;;;22.40;40.60;;;;;;5064135;28;20943;-74
2021/11/12 00:46:12;;;;;;;2.40;1.90;;;22.40;40.60;;;;;;5064045;28;20399;-75
2021/11/12 00:48:49;;;;;;;2.47;2.10;;;22.40;40.50;;;;;;5063250;28;20419;-74
2021/11/12 00:56:23;;;;;;;2.20;2.00;;;22.40;40.50;;;;;;5063920;28;20945;-73
2021/11/12 00:58:49;;;;;;;2.30;2.10;;;22.40;40.50;;;;;;5063362;28;20406;-74
2021/11/12 01:01:15;;;;;;;2.35;2.15;;;22.40;40.50;;;;;;5063495;28;20387;-74
2021/11/12 01:03:41;;;;;;;2.47;2.28;;;22.40;40.50;;;;;;5062156;28;20499;-70
2021/11/12 01:06:07;;;;;;;2.40;2.20;;;22.40;40.50;;;;;;5062140;28;20569;-74
2021/11/12 01:08:33;;;;;;;2.55;2.35;;;22.40;40.40;;;;;;5063507;28;20474;-71
2021/11/12 01:10:58;;;;;;;2.40;2.20;;;22.40;40.40;;;;;;5063414;28;20391;-75
2021/11/12 01:13:25;;;;;;;2.38;2.17;;;22.40;40.40;;;;;;5063292;28;20434;-75
2021/11/12 01:15:51;;;;;;;2.55;2.35;;;22.40;40.40;;;;;;5062140;28;20734;-75
2021/11/12 01:18:17;;;;;;;2.50;2.30;;;22.30;40.40;;;;;;5063049;28;20471;-74
2021/11/12 01:20:45;;;;;;;2.30;2.10;;;22.30;40.30;;;;;;5061848;28;20391;-73
2021/11/12 01:23:11;;;;;;;2.40;2.17;;;22.30;40.30;;;;;;5063359;28;20498;-74
2021/11/12 01:25:37;;;;;;;2.40;2.20;;;22.40;40.30;;;;;;5061680;28;20399;-73
2021/11/12 01:28:03;;;;;;;2.40;2.20;;;22.30;40.30;;;;;;5063420;28;20387;-73
2021/11/12 01:30:29;;;;;;;2.58;2.33;;;22.30;40.30;;;;;;5061682;28;20541;-75
2021/11/12 01:32:55;;;;;;;2.45;2.25;;;22.30;40.30;;;;;;5061864;28;20503;-74
2021/11/12 01:35:21;;;;;;;2.30;2.10;;;22.30;40.30;;;;;;5061102;28;20396;-74
2021/11/12 01:37:48;;;;;;;2.50;2.30;;;22.30;40.30;;;;;;5062918;28;20403;-71
2021/11/12 01:40:23;;;;;;;2.83;2.40;;;22.30;40.30;;;;;;5061743;28;20403;-69
2021/11/12 01:43:07;;;;;;;2.33;2.13;;;22.30;40.20;;;;;;5062897;28;20395;-76
2021/11/12 01:48:32;;;;;;;2.40;2.20;;;22.30;40.20;;;;;;5063669;28;20938;-75
2021/11/12 01:51:46;;;;;;;2.40;2.20;;;22.30;40.20;;;;;;5063010;28;20431;-74
2021/11/12 01:53:55;;;;;;;2.30;2.10;;;22.30;40.20;;;;;;5059211;28;20399;-74
2021/11/12 02:01:26;;;;;;;2.20;2.00;;;22.20;40.20;;;;;;5062918;28;20440;-75
2021/11/12 02:11:32;;;;;;;2.53;2.33;;;22.20;40.10;;;;;;5063015;28;20371;-70
2021/11/12 02:13:59;;;;;;;2.40;2.20;;;22.20;40.10;;;;;;5062557;28;20391;-76
2021/11/12 02:16:30;;;;;;;2.37;2.10;;;22.30;40.10;;;;;;5062647;28;20415;-74
2021/11/12 02:18:57;;;;;;;2.40;2.20;;;22.20;40.10;;;;;;5062433;28;20781;-74
2021/11/12 02:24:10;;;;;;;2.25;2.05;;;22.20;40.00;;;;;;5062866;28;20788;-75
2021/11/12 02:26:40;;;;;;;2.30;2.08;;;22.20;40.00;;;;;;5060959;28;20394;-75
2021/11/12 02:29:08;;;;;;;2.42;2.22;;;22.20;39.90;;;;;;5062633;28;20395;-75
2021/11/12 02:31:34;;;;;;;2.85;2.45;;;22.20;40.00;;;;;;5061102;28;20771;-67
2021/11/12 02:34:06;;;;;;;2.42;2.20;;;22.20;40.00;;;;;;5061507;28;20453;-68
2021/11/12 02:36:33;;;;;;;2.40;2.20;;;22.20;40.00;;;;;;5062642;28;20376;-74
2021/11/12 02:39:00;;;;;;;2.47;2.28;;;22.20;40.10;;;;;;5062722;28;20391;-74
2021/11/12 02:41:26;;;;;;;2.53;2.33;;;22.20;40.10;;;;;;5062284;28;20388;-71
2021/11/12 02:43:53;;;;;;;2.40;2.20;;;22.20;40.10;;;;;;5062543;28;20416;-75
2021/11/12 02:46:21;;;;;;;2.90;2.40;;;22.10;40.10;;;;;;5065531;28;20395;-74
2021/11/12 02:48:48;;;;;;;2.45;2.25;;;22.10;40.00;;;;;;5064181;28;20400;-75
2021/11/12 02:51:21;;;;;;;2.40;2.20;;;22.10;40.00;;;;;;5064507;28;20441;-73
2021/11/12 02:53:48;;;;;;;2.30;2.10;;;22.10;40.00;;;;;;5064904;28;20904;-75
2021/11/12 02:56:23;;;;;;;2.42;2.10;;;22.10;39.90;;;;;;5065767;28;20394;-73
2021/11/12 02:58:51;;;;;;;2.78;2.28;;;22.10;40.00;;;;;;5065937;28;20563;-74
2021/11/12 03:01:18;;;;;;;2.40;2.10;;;22.10;40.60;;;;;;5064751;28;20867;-75
2021/11/12 03:03:44;;;;;;;2.13;1.92;;;22.10;39.90;;;;;;5065816;28;20398;-73
2021/11/12 03:06:10;;;;;;;2.40;2.20;;;22.10;39.90;;;;;;5065774;28;20392;-71
2021/11/12 03:08:35;;;;;;;2.40;2.20;;;22.20;39.90;;;;;;5065614;28;20375;-70
2021/11/12 03:11:01;;;;;;;2.77;2.57;;;22.20;39.90;;;;;;5065824;28;20388;-71
2021/11/12 03:13:27;;;;;;;2.45;2.25;;;22.10;39.80;;;;;;5064207;28;20434;-70
2021/11/12 03:15:53;;;;;;;2.90;2.60;;;22.10;39.80;;;;;;5064329;28;20387;-67
2021/11/12 03:18:19;;;;;;;2.60;2.40;;;22.10;39.80;;;;;;5065772;28;20395;-75
2021/11/12 03:20:47;;;;;;;2.50;2.30;;;22.10;39.90;;;;;;5064475;28;20422;-71
2021/11/12 03:23:25;;;;;;;2.70;2.50;;;22.10;39.90;;;;;;5064089;28;20851;-75
2021/11/12 04:00:44;;;;;;;2.97;2.67;;;22.10;39.70;;;;;;5064720;28;20893;-74
2021/11/12 05:50:24;;;;;;;3.60;2.83;;;22.20;39.40;;;;;;5061621;28;20395;-74
2021/11/12 05:55:34;;;;;;;3.13;2.67;;;22.20;39.40;;;;;;5061553;28;20471;-69
2021/11/12 05:58:00;;;;;;;3.63;2.60;;;22.20;39.30;;;;;;5061519;28;20487;-72
2021/11/12 06:00:26;;;;;;;4.38;3.00;;;22.20;39.40;;;;;;5061373;28;20444;-72
2021/11/12 06:02:52;;;;;;;3.05;2.63;;;22.20;39.30;;;;;;5059993;28;20392;-74
2021/11/12 06:05:18;;;;;;;3.45;2.83;;;22.20;39.40;;;;;;5060093;28;20392;-71
2021/11/12 06:07:47;;;;;;;3.05;2.50;;;22.20;39.30;;;;;;5061329;28;21511;-69
2021/11/12 06:10:14;;;;;;;2.90;2.60;;;22.20;39.20;;;;;;5061444;28;20392;-72
2021/11/12 06:12:40;;;;;;;4.05;2.80;;;22.10;39.10;;;;;;5060756;28;20423;-71
2021/11/12 06:15:06;;;;;;;3.00;2.70;;;22.00;39.20;;;;;;5061542;28;20781;-73
2021/11/12 06:17:33;;;;;;;3.67;2.90;;;21.90;39.50;;;;;;5060461;28;20391;-74
2021/11/12 06:20:00;;;;;;;4.10;2.75;;;21.90;39.70;;;;;;5062304;28;20399;-67
2021/11/12 06:22:26;;;;;;;4.28;2.67;;;21.80;39.60;;;;;;5064225;28;20415;-72
2021/11/12 06:24:52;;;;;;;6.68;3.20;;;21.70;39.70;;;;;;5065995;28;20418;-69
2021/11/12 06:27:18;;;;;;;4.63;2.67;;;21.80;39.80;;;;;;5065748;28;20391;-74
2021/11/12 06:29:43;;;;;;;8.52;5.40;;;21.80;39.80;;;;;;5064130;28;20403;-72
2021/11/12 06:32:09;;;;;;;4.80;3.90;;;21.70;41.40;;;;;;5065667;28;20435;-68
2021/11/12 06:34:35;;;;;;;4.78;3.70;;;21.70;40.50;;;;;;5065893;28;20395;-74
2021/11/12 06:37:01;;;;;;;6.35;4.15;;;21.60;42.00;;;;;;5065607;28;20396;-74
2021/11/12 06:39:27;;;;;;;8.25;3.83;;;21.80;42.00;;;;;;5065713;28;20421;-70
2021/11/12 06:41:56;;;;;;;6.20;3.40;;;21.80;43.40;;;;;;5064328;28;20395;-73
2021/11/12 06:52:24;;;;;;;5.50;3.13;;;21.90;42.10;;;;;;5065401;28;20431;-70
2021/11/12 06:54:52;;;;;;;5.72;3.30;;;22.00;42.00;;;;;;5063539;28;20439;-69
2021/11/12 06:57:19;;;;;;;6.20;3.25;;;22.00;41.60;;;;;;5062583;28;20384;-72
2021/11/12 06:59:46;;;;;;;5.50;3.10;;;22.00;41.50;;;;;;5063207;28;20428;-73
2021/11/12 07:02:14;;;;;;;4.25;2.88;;;22.00;41.40;;;;;;5062284;28;20467;-72
2021/11/12 07:04:40;;;;;;;4.20;2.70;;;22.00;41.50;;;;;;5062540;28;20396;-71
2021/11/12 07:07:06;;;;;;;3.88;2.40;;;22.00;41.50;;;;;;5064020;28;20380;-72
2021/11/12 07:09:33;;;;;;;4.97;2.85;;;22.00;41.40;;;;;;5064772;28;20791;-73
2021/11/12 07:11:59;;;;;;;4.22;2.92;;;22.00;40.90;;;;;;5064830;28;20588;-72
2021/11/12 07:14:25;;;;;;;4.10;2.78;;;22.10;41.20;;;;;;5063656;28;20809;-73
2021/11/12 07:16:51;;;;;;;6.57;2.95;;;22.10;41.00;;;;;;5064883;28;20971;-72
2021/11/12 07:19:16;;;;;;;5.78;2.65;;;22.00;40.90;;;;;;5065245;28;20388;-72
2021/11/12 07:21:42;;;;;;;5.80;2.80;;;22.10;40.90;;;;;;5064592;28;20939;-73
2021/11/12 07:24:08;;;;;;;5.27;2.50;;;22.10;40.80;;;;;;5064968;28;20380;-71
2021/11/12 07:26:34;;;;;;;6.68;3.00;;;22.00;40.60;;;;;;5064725;28;20753;-71
2021/11/12 07:29:00;;;;;;;6.40;3.05;;;22.00;40.50;;;;;;5064547;28;20434;-73
2021/11/12 07:31:26;;;;;;;6.27;2.80;;;22.00;40.40;;;;;;5063633;28;20453;-72
2021/11/12 07:33:54;;;;;;;4.72;2.83;;;22.00;40.30;;;;;;5064283;28;20399;-71
2021/11/12 07:36:22;;;;;;;6.45;2.80;;;22.00;40.20;;;;;;5064721;28;20871;-71
2021/11/12 07:38:53;;;;;;;5.15;2.95;;;22.00;40.00;;;;;;5064599;28;20388;-73
2021/11/12 07:46:42;;;;;;;5.28;3.00;;;21.90;39.80;;;;;;5064243;28;20402;-72
2021/11/12 07:49:11;;;;;;;4.53;2.87;;;21.90;39.70;;;;;;5064313;28;20442;-71
2021/11/12 07:51:37;;;;;;;3.72;2.58;;;21.90;39.70;;;;;;5064377;28;20864;-72
2021/11/12 07:54:04;;;;;;;4.30;2.70;;;21.90;39.60;;;;;;5064036;28;20483;-72
2021/11/12 07:56:31;;;;;;;4.05;2.65;;;21.90;39.70;;;;;;5062676;28;20418;-71
2021/11/12 07:58:57;;;;;;;3.30;2.55;;;21.90;39.60;;;;;;5063045;28;20404;-72
2021/11/12 08:01:23;;;;;;;3.55;2.60;;;21.90;39.60;;;;;;5063843;28;20816;-71
2021/11/12 08:03:53;;;;;;;4.50;2.77;;;21.90;39.50;;;;;;5064171;28;20388;-71
2021/11/12 08:06:20;;;;;;;3.77;2.60;;;21.90;39.50;;;;;;5064112;28;20380;-71
2021/11/12 08:08:55;;;;;;;3.95;2.60;;;21.80;39.50;;;;;;5063369;28;20399;-69
2021/11/12 08:11:28;;;;;;;4.80;2.65;;;21.90;39.40;;;;;;5063576;28;20392;-68
2021/11/12 08:14:01;;;;;;;3.63;2.70;;;21.90;39.40;;;;;;5063786;28;20448;-70
2021/11/12 08:19:12;;;;;;;4.30;2.40;;;21.80;39.40;;;;;;5063967;28;20510;-72
2021/11/12 08:24:51;;;;;;;3.00;2.70;;;21.80;39.40;;;;;;5062007;28;20372;-72
2021/11/12 08:37:50;;;;;;;3.03;2.40;;;21.60;39.80;;;;;;5063256;28;21026;-71
2021/11/12 08:45:32;;;;;;;3.97;2.47;;;21.60;39.80;;;;;;5063385;28;20391;-69
2021/11/12 08:48:05;;;;;;;3.90;2.80;;;21.40;39.80;;;;;;5063377;28;20384;-71
2021/11/12 08:50:31;;;;;;;3.63;2.70;;;21.40;39.60;;;;;;5066491;28;20383;-73
2021/11/12 08:53:04;;;;;;;4.00;2.75;;;21.40;39.80;;;;;;5063228;28;20454;-74
2021/11/12 08:55:31;;;;;;;4.70;2.70;;;21.50;40.30;;;;;;5063404;28;20391;-72
2021/11/12 08:57:57;;;;;;;4.97;2.90;;;21.50;40.20;;;;;;5055221;28;20431;-73
2021/11/12 09:00:24;;;;;;;4.37;2.70;;;21.50;39.80;;;;;;5061001;28;20371;-73
2021/11/12 09:02:51;;;;;;;4.25;2.42;;;21.30;40.00;;;;;;5061756;28;20809;-71
2021/11/12 09:05:18;;;;;;;4.10;2.53;;;21.30;40.10;;;;;;5060936;28;20453;-69
2021/11/12 09:07:48;;;;;;;6.20;2.60;;;21.30;40.30;;;;;;5061199;28;20742;-71
2021/11/12 09:10:15;;;;;;;3.45;2.40;;;21.40;40.20;;;;;;5059926;28;20388;-70
2021/11/12 09:12:44;;;;;;;3.38;2.28;;;21.30;40.00;;;;;;5059796;28;20502;-71
2021/11/12 09:15:14;;;;;;;3.72;2.65;;;21.30;40.00;;;;;;5059521;28;20399;-69
2021/11/12 09:17:46;;;;;;;3.70;2.55;;;21.30;40.10;;;;;;5061198;28;20379;-70
2021/11/12 09:20:13;;;;;;;4.60;2.50;;;21.30;40.10;;;;;;5061343;28;20439;-72
2021/11/12 09:22:39;;;;;;;4.38;2.30;;;21.20;40.30;;;;;;5059683;28;20754;-71
2021/11/12 09:25:07;;;;;;;3.75;2.50;;;21.30;40.10;;;;;;5059793;28;20527;-69
2021/11/12 09:27:33;;;;;;;2.67;2.10;;;21.30;40.10;;;;;;5060365;28;20384;-72
2021/11/12 09:29:59;;;;;;;3.00;2.30;;;21.20;40.00;;;;;;5058329;28;20437;-73
2021/11/12 09:32:25;;;;;;;2.93;2.40;;;21.20;40.10;;;;;;5059971;28;20476;-72
2021/11/12 09:34:51;;;;;;;3.75;2.58;;;21.20;40.10;;;;;;5058334;28;20407;-71
2021/11/12 09:37:21;;;;;;;2.38;2.10;;;21.20;40.30;;;;;;5059644;28;20950;-68
2021/11/12 09:39:57;;;;;;;2.50;2.28;;;21.20;40.10;;;;;;5059574;28;20399;-69
2021/11/12 09:42:24;;;;;;;2.87;2.27;;;21.20;40.00;;;;;;5058045;28;20391;-71
2021/11/12 09:44:50;;;;;;;2.67;2.45;;;21.20;40.10;;;;;;5060348;28;20388;-72
2021/11/12 09:47:22;;;;;;;2.95;2.30;;;21.10;40.00;;;;;;5060086;28;20801;-71
2021/11/12 09:49:49;;;;;;;3.65;2.40;;;21.10;40.10;;;;;;5058833;28;20745;-71
2021/11/12 09:52:15;;;;;;;2.30;2.10;;;21.10;40.20;;;;;;5058545;28;20418;-71
2021/11/12 09:54:41;;;;;;;2.40;2.10;;;21.10;40.10;;;;;;5057118;28;20396;-71
2021/11/12 09:57:06;;;;;;;2.35;1.90;;;21.10;40.10;;;;;;5058120;28;20957;-70
2021/11/12 09:59:33;;;;;;;2.60;1.90;;;21.10;40.10;;;;;;5059304;28;20868;-67
2021/11/12 10:02:05;;;;;;;2.50;2.10;;;21.10;40.20;;;;;;5061446;28;20423;-69
2021/11/12 10:04:33;;;;;;;2.83;2.35;;;21.00;40.00;;;;;;5052811;28;20387;-70
2021/11/12 10:06:59;;;;;;;3.38;2.30;;;21.00;40.30;;;;;;5056402;28;20400;-71
2021/11/12 10:09:26;;;;;;;2.53;2.20;;;21.00;40.30;;;;;;5063277;28;20387;-70
2021/11/12 10:11:59;;;;;;;2.50;2.13;;;21.10;40.20;;;;;;5062065;28;20465;-69
2021/11/12 10:14:52;;;;;;;2.50;2.20;;;21.10;40.00;;;;;;5061465;28;20388;-69
2021/11/12 10:17:22;;;;;;;3.40;2.50;;;21.20;40.50;;;;;;5062041;28;20502;-68
2021/11/12 10:19:53;;;;;;;3.00;2.38;;;21.20;39.90;;;;;;5061911;28;20447;-71
2021/11/12 10:22:28;;;;;;;2.47;2.10;;;21.20;39.80;;;;;;5062053;28;20499;-72
2021/11/12 10:24:55;;;;;;;2.72;2.20;;;21.30;39.70;;;;;;5060566;28;20396;-69
2021/11/12 10:27:24;;;;;;;2.50;1.98;;;21.30;39.80;;;;;;5062702;28;20399;-72
2021/11/12 10:29:55;;;;;;;2.75;2.40;;;21.30;39.60;;;;;;5066142;28;20375;-70
2021/11/12 10:32:23;;;;;;;2.60;2.13;;;21.30;39.60;;;;;;5062933;28;20816;-68
2021/11/12 10:34:52;;;;;;;2.40;2.00;;;21.30;39.60;;;;;;5062317;28;20654;-71
2021/11/12 10:37:22;;;;;;;2.33;2.10;;;21.30;39.50;;;;;;5060806;28;20442;-67
2021/11/12 10:40:02;;;;;;;2.58;2.17;;;21.30;39.50;;;;;;5061657;28;20379;-66
2021/11/12 10:42:31;;;;;;;2.58;2.25;;;21.30;39.50;;;;;;5059946;28;20406;-70
2021/11/12 10:45:00;;;;;;;3.00;2.15;;;21.30;39.50;;;;;;5058645;28;20950;-71
2021/11/12 10:47:30;;;;;;;3.35;2.22;;;21.40;39.50;;;;;;5059513;28;20394;-71
2021/11/12 10:49:59;;;;;;;2.80;2.40;;;21.40;39.50;;;;;;5059763;28;20395;-71
2021/11/12 10:52:27;;;;;;;2.95;2.25;;;21.40;39.50;;;;;;5059864;28;20424;-71
2021/11/12 10:55:04;;;;;;;3.78;2.20;;;21.40;39.50;;;;;;5060004;28;20477;-72
2021/11/12 10:57:34;;;;;;;2.85;2.47;;;21.40;39.50;;;;;;5059560;28;20496;-72
2021/11/12 11:00:08;;;;;;;3.35;2.42;;;21.40;39.40;;;;;;5075871;28;20399;-71
2021/11/12 11:02:39;;;;;;;4.05;2.30;;;21.40;39.40;;;;;;5058541;28;20416;-69
2021/11/12 11:05:19;;;;;;;7.22;6.32;;;21.40;39.90;;;;;;5059886;28;20618;-67
2021/11/12 11:07:58;;;;;;;10.98;8.00;;;21.40;39.50;;;;;;5077624;28;20449;-68
2021/11/12 11:10:47;;;;;;;9.57;4.63;;;21.50;40.50;;;;;;5063244;28;20915;-69
2021/11/12 11:13:35;;;;;;;12.85;9.10;;;21.50;41.10;;;;;;5058757;28;20506;-67
2021/11/12 11:16:06;;;;;;;9.53;8.20;;;21.40;40.10;;;;;;5062836;28;20396;-66
2021/11/12 11:18:37;;;;;;;8.73;6.30;;;21.40;40.60;;;;;;5061714;28;20398;-69
2021/11/12 11:21:11;;;;;;;10.25;6.20;;;21.40;40.90;;;;;;5061640;28;20415;-70
2021/11/12 11:23:52;;;;;;;9.27;5.60;;;21.40;41.30;;;;;;5059772;28;20419;-71
2021/11/12 11:26:22;;;;;;;9.57;5.35;;;21.50;41.10;;;;;;5060978;28;20400;-69
2021/11/12 11:28:51;;;;;;;6.78;5.30;;;21.50;41.00;;;;;;5062009;28;20465;-72
2021/11/12 11:31:17;;;;;;;6.68;5.00;;;21.50;40.70;;;;;;5060916;28;20404;-71
2021/11/12 11:33:47;;;;;;;11.57;5.20;;;21.40;40.90;;;;;;5060099;28;20844;-72
2021/11/12 11:36:16;;;;;;;7.87;4.93;;;21.40;41.10;;;;;;5063486;28;20479;-72
2021/11/12 11:38:43;;;;;;;6.68;4.55;;;21.40;41.30;;;;;;5063470;28;20390;-71
2021/11/12 11:41:10;;;;;;;7.25;4.35;;;21.50;41.30;;;;;;5062488;28;20388;-72
2021/11/12 11:43:37;;;;;;;6.87;4.63;;;21.50;41.20;;;;;;5062217;28;20392;-71
2021/11/12 11:46:07;;;;;;;8.48;4.40;;;21.40;40.80;;;;;;5063998;28;20903;-71
2021/11/12 11:48:38;;;;;;;7.25;4.10;;;21.40;40.80;;;;;;5063182;28;20403;-69
2021/11/12 11:51:06;;;;;;;5.70;4.38;;;21.30;40.80;;;;;;5063847;28;20414;-72
2021/11/12 11:53:39;;;;;;;8.00;4.95;;;21.30;41.20;;;;;;5061350;28;20911;-72
2021/11/12 11:56:11;;;;;;;6.07;4.30;;;21.40;41.00;;;;;;5062914;28;20380;-68
2021/11/12 11:58:45;;;;;;;5.32;3.90;;;21.50;41.30;;;;;;5063055;28;20395;-71
2021/11/12 12:01:23;;;;;;;6.28;5.13;;;21.40;40.50;;;;;;5078868;28;20403;-69
2021/11/12 12:04:15;;;;;;;9.70;5.60;;;21.40;41.70;;;;;;5062842;28;20473;-69
2021/11/12 12:07:00;;;;;;;7.90;5.00;;;21.40;42.50;;;;;;5062885;28;20423;-72
2021/11/12 12:09:41;;;;;;;8.02;4.70;;;21.50;42.60;;;;;;5062460;28;20383;-69
2021/11/12 12:12:07;;;;;;;9.38;4.35;;;21.60;42.20;;;;;;5063282;28;20548;-67
2021/11/12 12:14:36;;;;;;;9.10;4.87;;;21.50;41.60;;;;;;5064573;28;20502;-68
2021/11/12 12:17:12;;;;;;;14.38;4.80;;;21.60;42.10;;;;;;5064205;28;20388;-71
2021/11/12 12:19:47;;;;;;;17.38;4.30;;;21.50;42.30;;;;;;5063063;28;20431;-70
2021/11/12 13:20:19;;;;;;;5.55;3.00;;;22.30;41.70;;;;;;5061327;28;20429;-70
2021/11/12 13:23:51;;;;;;;4.38;3.05;;;22.30;41.50;;;;;;5059433;28;21015;-71
2021/11/12 13:25:52;;;;;;;5.95;3.35;;;22.20;41.40;;;;;;5057532;28;20383;-71
2021/11/12 13:28:24;;;;;;;5.03;3.17;;;22.20;41.60;;;;;;5059951;28;20384;-71
2021/11/12 13:31:00;;;;;;;6.13;3.28;;;22.20;41.50;;;;;;5058226;28;20396;-69
2021/11/12 13:33:51;;;;;;;5.75;3.30;;;22.20;41.40;;;;;;5058514;28;20430;-70
2021/11/12 13:36:22;;;;;;;8.02;2.90;;;22.20;41.00;;;;;;5056313;28;20888;-70
2021/11/12 13:39:00;;;;;;;5.65;2.67;;;22.10;41.30;;;;;;5060175;28;20560;-71
2021/11/12 13:41:39;;;;;;;8.13;2.85;;;22.10;41.20;;;;;;5061967;28;20896;-71
2021/11/12 13:44:09;;;;;;;5.87;2.70;;;22.10;41.30;;;;;;5061642;28;20881;-71
2021/11/12 13:46:43;;;;;;;7.03;2.60;;;22.10;41.20;;;;;;5060970;28;20472;-71
2021/11/12 13:49:09;;;;;;;4.22;2.78;;;22.10;41.00;;;;;;5061218;28;20912;-70
2021/11/12 13:51:35;;;;;;;4.77;2.60;;;22.10;41.00;;;;;;5061627;28;20383;-73
2021/11/12 13:54:04;;;;;;;4.45;2.97;;;22.10;41.00;;;;;;5060368;28;20396;-66
2021/11/12 13:56:36;;;;;;;3.35;2.40;;;22.10;40.80;;;;;;5060191;28;20388;-71
2021/11/12 13:59:10;;;;;;;9.80;3.47;;;22.10;41.40;;;;;;5060518;28;20482;-71
2021/11/12 14:01:36;;;;;;;4.25;2.55;;;22.10;40.80;;;;;;5061370;28;20395;-71
2021/11/12 14:04:02;;;;;;;3.73;2.60;;;22.10;40.70;;;;;;5060799;28;20436;-71
2021/11/12 14:06:38;;;;;;;4.53;3.00;;;22.10;40.60;;;;;;5060441;28;20391;-71
2021/11/12 14:09:04;;;;;;;5.78;2.80;;;22.10;40.70;;;;;;5060468;28;20391;-72
2021/11/12 14:11:33;;;;;;;4.15;2.60;;;22.10;41.00;;;;;;5061386;28;20411;-66
2021/11/12 14:14:05;;;;;;;4.90;2.92;;;22.10;40.50;;;;;;5060046;28;20415;-70
2021/11/12 14:16:44;;;;;;;3.60;2.70;;;22.10;40.70;;;;;;5060729;28;20900;-68
2021/11/12 14:22:10;;;;;;;12.80;3.30;;;22.10;40.60;;;;;;5061252;28;20461;-72
2021/11/12 14:27:30;;;;;;;8.87;3.10;;;22.10;40.50;;;;;;5062872;28;20388;-68
2021/11/12 14:44:11;;;;;;;461.95;173.90;;;22.10;41.50;;;;;;5037231;28;21317;-70
2021/11/12 14:46:10;;;;;;;433.50;158.00;;;22.20;40.80;;;;;;5060042;28;20753;-70
2021/11/12 14:54:52;;;;;;;305.07;104.67;;;22.20;40.80;;;;;;5069059;28;20460;-72
2021/11/12 14:59:58;;;;;;;364.13;103.28;;;22.20;41.90;;;;;;5065067;28;20386;-71
2021/11/12 15:02:27;;;;;;;325.92;94.40;;;22.20;42.10;;;;;;5064922;28;20392;-71
2021/11/12 15:04:53;;;;;;;320.98;99.55;;;22.20;41.40;;;;;;5066037;28;20411;-71
2021/11/12 15:07:24;;;;;;;291.00;88.55;;;22.20;41.70;;;;;;5063140;28;20916;-72
2021/11/12 15:09:51;;;;;;;264.20;87.60;;;22.20;42.00;;;;;;5063460;28;20901;-72
2021/11/12 15:12:17;;;;;;;231.30;75.75;;;22.30;42.10;;;;;;5064346;28;20411;-71
2021/11/12 15:14:48;;;;;;;223.23;79.93;;;22.40;42.50;;;;;;5064871;28;20391;-72
2021/11/12 15:17:14;;;;;;;377.98;281.60;;;22.40;42.40;;;;;;5063048;28;20399;-72
2021/11/12 15:19:43;;;;;;;255.83;154.93;;;22.50;42.10;;;;;;5064491;28;20838;-71
2021/11/12 15:22:24;;;;;;;237.93;144.93;;;22.50;41.60;;;;;;5062483;28;20418;-72
2021/11/12 15:30:52;;;;;;;138.10;72.85;;;22.70;42.60;;;;;;5044283;28;20390;-72
2021/11/12 15:33:19;;;;;;;136.90;66.75;;;22.80;42.20;;;;;;5063797;28;20451;-73
2021/11/12 15:35:47;;;;;;;120.15;60.03;;;22.80;41.50;;;;;;5062601;28;20403;-72
2021/11/12 15:38:33;;;;;;;100.50;56.17;;;22.80;41.60;;;;;;5063044;28;20901;-72
2021/11/12 15:41:07;;;;;;;97.60;54.33;;;22.80;41.30;;;;;;5062031;28;20402;-73
2021/11/12 15:46:22;;;;;;;85.50;46.75;;;22.90;40.50;;;;;;5064577;28;20422;-72
2021/11/12 15:48:49;;;;;;;71.50;41.72;;;23.00;40.40;;;;;;5065096;28;20869;-71
2021/11/12 15:51:38;;;;;;;70.20;41.57;;;23.10;39.50;;;;;;5061942;28;20408;-71
2021/11/12 16:09:53;;;;;;;69.97;35.95;;;23.60;38.40;;;;;;5064816;28;20729;-71
2021/11/12 16:12:27;;;;;;;75.70;37.97;;;23.60;38.20;;;;;;5064132;28;20415;-70
2021/11/12 16:25:21;;;;;;;75.88;45.78;;;23.90;38.00;;;;;;5064532;28;20380;-71
2021/11/12 16:27:50;;;;;;;69.93;41.50;;;23.90;37.60;;;;;;5064099;28;20392;-71
2021/11/12 16:30:20;;;;;;;58.50;32.90;;;24.00;37.70;;;;;;5062520;28;20742;-72
2021/11/12 16:32:49;;;;;;;51.97;30.48;;;24.00;37.30;;;;;;5062322;28;20420;-71
2021/11/12 16:35:19;;;;;;;49.92;28.08;;;24.00;37.20;;;;;;5063897;28;21106;-70
2021/11/12 16:37:47;;;;;;;47.80;27.57;;;24.00;37.30;;;;;;5063573;28;20391;-70
2021/11/12 16:43:03;;;;;;;46.63;27.45;;;24.10;36.80;;;;;;5058440;28;20926;-71
2021/11/12 16:51:38;;;;;;;43.10;26.25;;;24.20;36.60;;;;;;5040918;28;20421;-71
2021/11/12 16:54:20;;;;;;;41.90;25.38;;;24.20;36.60;;;;;;5062296;28;20642;-71
2021/11/12 16:59:27;;;;;;;37.13;23.42;;;24.20;35.90;;;;;;5062406;28;20868;-72
2021/11/12 17:04:26;;;;;;;36.08;23.25;;;24.00;36.40;;;;;;5063859;28;20737;-71
2021/11/12 17:07:06;;;;;;;34.35;20.95;;;24.00;36.70;;;;;;5063435;28;20490;-70
2021/11/12 17:20:18;;;;;;;28.17;17.87;;;23.90;36.70;;;;;;5062960;28;20984;-75
2021/11/12 17:24:00;;;;;;;27.57;16.87;;;23.90;37.10;;;;;;5061947;28;20516;-71
2021/11/12 17:45:20;;;;;;;22.10;13.25;;;24.10;37.50;;;;;;5057827;28;21292;-74
2021/11/12 17:47:48;;;;;;;20.70;13.23;;;24.10;37.80;;;;;;5055801;28;20407;-74
2021/11/12 18:03:50;;;;;;;20.80;12.00;;;24.50;37.90;;;;;;5061409;28;20445;-73
2021/11/12 18:06:24;;;;;;;16.05;10.20;;;24.70;37.60;;;;;;5061135;28;20474;-75
2021/11/12 21:48:39;;;;;;;13.27;8.52;;;25.80;36.20;;;;;;5062811;28;20375;-74
2021/11/12 21:51:11;;;;;;;12.27;8.07;;;25.80;36.10;;;;;;5062299;28;20391;-72
2021/11/12 21:53:36;;;;;;;11.73;8.07;;;25.80;36.10;;;;;;5061340;28;20442;-72
2021/11/12 21:56:04;;;;;;;10.43;7.40;;;25.80;36.10;;;;;;5062838;28;20384;-74
2021/11/12 21:58:30;;;;;;;11.80;7.70;;;25.80;35.80;;;;;;5061369;28;20935;-76
2021/11/12 22:00:59;;;;;;;11.48;7.70;;;25.70;35.90;;;;;;5061862;28;20407;-74
2021/11/12 22:03:27;;;;;;;11.15;7.07;;;25.80;36.10;;;;;;5061531;28;20417;-74
2021/11/12 22:05:54;;;;;;;9.82;6.85;;;25.80;36.10;;;;;;5061315;28;20969;-72
2021/11/12 22:08:20;;;;;;;10.05;6.93;;;25.80;36.00;;;;;;5062916;28;20407;-72
2021/11/12 22:10:47;;;;;;;9.75;6.68;;;25.80;36.00;;;;;;5061155;28;20403;-73
2021/11/12 22:13:12;;;;;;;8.63;6.03;;;25.80;36.10;;;;;;5060664;28;20423;-71
2021/11/12 22:15:40;;;;;;;9.32;6.10;;;25.80;36.10;;;;;;5061303;28;20391;-75
2021/11/12 22:18:07;;;;;;;8.60;5.70;;;25.80;36.10;;;;;;5059481;28;20556;-75
2021/11/12 22:20:34;;;;;;;8.23;6.10;;;25.80;36.20;;;;;;5061476;28;20500;-73
2021/11/12 22:23:00;;;;;;;10.18;6.07;;;25.80;36.20;;;;;;5060710;28;20476;-74
2021/11/12 22:25:26;;;;;;;10.88;5.70;;;25.80;36.20;;;;;;5060659;28;20384;-74
2021/11/12 22:27:52;;;;;;;9.80;5.37;;;25.90;36.50;;;;;;5062928;28;20525;-75
2021/11/12 22:30:17;;;;;;;12.68;5.05;;;25.90;36.60;;;;;;5058855;28;20468;-75
2021/11/12 22:32:43;;;;;;;8.53;5.10;;;26.00;36.90;;;;;;5058274;28;20450;-72
2021/11/12 22:35:10;;;;;;;10.82;5.00;;;26.00;36.80;;;;;;5058956;28;21120;-76
2021/11/12 22:37:37;;;;;;;10.07;4.70;;;26.00;36.60;;;;;;5059722;28;20396;-76
2021/11/12 22:40:04;;;;;;;7.90;4.60;;;26.00;36.60;;;;;;5057905;28;20387;-74
2021/11/12 22:42:30;;;;;;;7.60;4.80;;;26.00;36.50;;;;;;5058847;28;20414;-75
2021/11/12 22:44:55;;;;;;;9.73;4.80;;;26.00;36.50;;;;;;5059516;28;20869;-75
2021/11/12 22:47:21;;;;;;;8.60;4.50;;;26.00;36.50;;;;;;5059838;28;20435;-75
2021/11/12 22:49:47;;;;;;;7.33;4.43;;;26.00;36.50;;;;;;5059153;28;20924;-75
2021/11/12 22:52:13;;;;;;;8.88;4.55;;;26.00;36.60;;;;;;5058821;28;20747;-76
2021/11/12 22:54:43;;;;;;;6.63;4.20;;;26.00;36.50;;;;;;5059231;28;20403;-73
2021/11/12 22:57:09;;;;;;;8.75;4.50;;;26.00;36.30;;;;;;5060938;28;20466;-73
2021/11/12 22:59:34;;;;;;;6.30;4.15;;;26.00;36.40;;;;;;5059484;28;20488;-75
2021/11/12 23:02:00;;;;;;;7.20;4.00;;;26.00;36.30;;;;;;5061431;28;20411;-75
2021/11/12 23:04:25;;;;;;;7.07;3.70;;;26.00;36.30;;;;;;5064760;28;20406;-73
2021/11/12 23:06:51;;;;;;;7.03;4.20;;;26.00;36.30;;;;;;5064566;28;21699;-73
2021/11/12 23:09:17;;;;;;;6.57;3.95;;;26.00;36.30;;;;;;5063176;28;21414;-74
2021/11/12 23:11:43;;;;;;;5.50;3.87;;;26.00;36.30;;;;;;5064079;28;20884;-75
2021/11/12 23:14:09;;;;;;;5.13;3.75;;;26.00;36.30;;;;;;5064444;28;20553;-73